PWSweather.com
Personal Weather Stations
Station Observations
KNJEWING3
Ewing, NJ 08638

Ewing, NJ 08638

Lat: 40.25193, Lon: -74.77511

Elevation: 106

Station Type: Oregon Scientific WMR968 / SRS100 Solar Radiation Shield. Rain Data At www.cocorahs.org (NJ-MC-11)

Latest ConditionsUpdated 4:45:59 AM EDT Thursday, Apr 24, 2014
Currently Today's Max Today's Min Today's Average
Temperature 41.5°F5.3°C 44.2°F6.8°C 41.5°F5.3°C 42.9°F6.1°C
Dew Point 20.2°F-6.6°C 22.1°F-5.5°C 20.2°F-6.6°C 21.1°F-6.1°C
Winds 2.7 mph WNW4.3 kmh WNW 10.5 mph WNW16.9 kmh WNW - 3.9 mph 6.3 kmh
Wind Gusts 7.0 mph11.3 kmh 12.1 mph19.5 kmh - -
Humidity 42% 42% 41% 41%
Pressure 17.72 in600.1 mb 17.72 in600.1 mb 17.72 in600.1 mb -
Hour Temp Dew Point Humidity Winds Wind Gusts Pressure Precip Precip Rate Daily Precip Total
04:45 AM 41.5°F5.3°C 20.2°F-6.6°C 42% 4.3 mph NNW6.9 kmh NNW 6.4 mph10.3 kmh 17.72 in600.1 mb 0.00 in0.0 mm 0.00 in/hr0.0 mm/hr 0.00 in0.0 mm
04:44 AM 41.5°F5.3°C 20.2°F-6.6°C 42% 2.7 mph W4.3 kmh W 6.4 mph10.3 kmh 17.72 in600.1 mb 0.00 in0.0 mm 0.00 in/hr0.0 mm/hr 0.00 in0.0 mm
04:43 AM 41.5°F5.3°C 20.2°F-6.6°C 42% 3.8 mph NW6.1 kmh NW 6.4 mph10.3 kmh 17.72 in600.1 mb 0.00 in0.0 mm 0.00 in/hr0.0 mm/hr 0.00 in0.0 mm
04:42 AM 41.5°F5.3°C 20.2°F-6.6°C 42% 6.4 mph NNW10.3 kmh NNW 6.4 mph10.3 kmh 17.72 in600.1 mb 0.00 in0.0 mm 0.00 in/hr0.0 mm/hr 0.00 in0.0 mm
04:40 AM 41.5°F5.3°C 20.2°F-6.6°C 42% 4.3 mph NNW6.9 kmh NNW 5.9 mph9.5 kmh 17.72 in600.1 mb 0.00 in0.0 mm 0.00 in/hr0.0 mm/hr 0.00 in0.0 mm
04:39 AM 41.5°F5.3°C 20.2°F-6.6°C 42% 3.2 mph NW5.1 kmh NW 3.2 mph5.1 kmh 17.72 in600.1 mb 0.00 in0.0 mm 0.00 in/hr0.0 mm/hr 0.00 in0.0 mm
04:38 AM 41.7°F5.4°C 20.3°F-6.5°C 42% Calm Calm 2.7 mph4.3 kmh 17.72 in600.1 mb 0.00 in0.0 mm 0.00 in/hr0.0 mm/hr 0.00 in0.0 mm
04:37 AM 41.7°F5.4°C 20.3°F-6.5°C 42% Calm Calm 4.3 mph6.9 kmh 17.72 in600.1 mb 0.00 in0.0 mm 0.00 in/hr0.0 mm/hr 0.00 in0.0 mm
04:36 AM 41.7°F5.4°C 20.3°F-6.5°C 42% Calm Calm 4.3 mph6.9 kmh 17.72 in600.1 mb 0.00 in0.0 mm 0.00 in/hr0.0 mm/hr 0.00 in0.0 mm
04:35 AM 41.7°F5.4°C 20.3°F-6.5°C 42% Calm Calm 4.3 mph6.9 kmh 17.72 in600.1 mb 0.00 in0.0 mm 0.00 in/hr0.0 mm/hr 0.00 in0.0 mm
04:33 AM 41.9°F5.5°C 20.5°F-6.4°C 42% Calm Calm 4.8 mph7.7 kmh 17.72 in600.1 mb 0.00 in0.0 mm 0.00 in/hr0.0 mm/hr 0.00 in0.0 mm
04:32 AM 41.9°F5.5°C 20.5°F-6.4°C 42% 2.7 mph NW4.3 kmh NW 7.0 mph11.3 kmh 17.72 in600.1 mb 0.00 in0.0 mm 0.00 in/hr0.0 mm/hr 0.00 in0.0 mm
04:31 AM 41.9°F5.5°C 20.5°F-6.4°C 42% 4.3 mph NNW6.9 kmh NNW 7.5 mph12.1 kmh 17.72 in600.1 mb 0.00 in0.0 mm 0.00 in/hr0.0 mm/hr 0.00 in0.0 mm
04:30 AM 41.9°F5.5°C 20.5°F-6.4°C 42% Calm Calm 7.5 mph12.1 kmh 17.72 in600.1 mb 0.00 in0.0 mm 0.00 in/hr0.0 mm/hr 0.00 in0.0 mm
04:29 AM 41.9°F5.5°C 20.5°F-6.4°C 42% 3.2 mph NW5.1 kmh NW 7.5 mph12.1 kmh 17.72 in600.1 mb 0.00 in0.0 mm 0.00 in/hr0.0 mm/hr 0.00 in0.0 mm
04:27 AM 41.9°F5.5°C 20.5°F-6.4°C 42% 4.8 mph NW7.7 kmh NW 7.5 mph12.1 kmh 17.72 in600.1 mb 0.00 in0.0 mm 0.00 in/hr0.0 mm/hr 0.00 in0.0 mm
04:26 AM 41.7°F5.4°C 20.3°F-6.5°C 42% 3.2 mph N5.1 kmh N 7.5 mph12.1 kmh 17.72 in600.1 mb 0.00 in0.0 mm 0.00 in/hr0.0 mm/hr 0.00 in0.0 mm
04:24 AM 41.9°F5.5°C 20.5°F-6.4°C 42% 3.2 mph NW5.1 kmh NW 6.4 mph10.3 kmh 17.72 in600.1 mb 0.00 in0.0 mm 0.00 in/hr0.0 mm/hr 0.00 in0.0 mm
04:23 AM 41.9°F5.5°C 20.5°F-6.4°C 42% 2.7 mph NW4.3 kmh NW 6.4 mph10.3 kmh 17.72 in600.1 mb 0.00 in0.0 mm 0.00 in/hr0.0 mm/hr 0.00 in0.0 mm
04:22 AM 41.9°F5.5°C 20.5°F-6.4°C 42% 6.4 mph NNW10.3 kmh NNW 6.4 mph10.3 kmh 17.72 in600.1 mb 0.00 in0.0 mm 0.00 in/hr0.0 mm/hr 0.00 in0.0 mm
04:20 AM 41.9°F5.5°C 20.5°F-6.4°C 42% 3.2 mph WNW5.1 kmh WNW 4.8 mph7.7 kmh 17.72 in600.1 mb 0.00 in0.0 mm 0.00 in/hr0.0 mm/hr 0.00 in0.0 mm
04:19 AM 42.1°F5.6°C 20.7°F-6.3°C 42% 3.2 mph NW5.1 kmh NW 6.4 mph10.3 kmh 17.72 in600.1 mb 0.00 in0.0 mm 0.00 in/hr0.0 mm/hr 0.00 in0.0 mm
04:17 AM 42.1°F5.6°C 20.7°F-6.3°C 42% 3.2 mph NW5.1 kmh NW 6.4 mph10.3 kmh 17.72 in600.1 mb 0.00 in0.0 mm 0.00 in/hr0.0 mm/hr 0.00 in0.0 mm
04:16 AM 42.1°F5.6°C 20.7°F-6.3°C 42% Calm Calm 6.4 mph10.3 kmh 17.72 in600.1 mb 0.00 in0.0 mm 0.00 in/hr0.0 mm/hr 0.00 in0.0 mm
04:15 AM 42.1°F5.6°C 20.7°F-6.3°C 42% 4.3 mph NW6.9 kmh NW 6.4 mph10.3 kmh 17.72 in600.1 mb 0.00 in0.0 mm 0.00 in/hr0.0 mm/hr 0.00 in0.0 mm
04:13 AM 42.1°F5.6°C 20.7°F-6.3°C 42% 2.7 mph NW4.3 kmh NW 7.5 mph12.1 kmh 17.72 in600.1 mb 0.00 in0.0 mm 0.00 in/hr0.0 mm/hr 0.00 in0.0 mm
04:12 AM 42.1°F5.6°C 20.7°F-6.3°C 42% 3.2 mph NW5.1 kmh NW 9.7 mph15.6 kmh 17.72 in600.1 mb 0.00 in0.0 mm 0.00 in/hr0.0 mm/hr 0.00 in0.0 mm
04:10 AM 42.3°F5.7°C 20.8°F-6.2°C 42% 5.9 mph NNW9.5 kmh NNW 9.7 mph15.6 kmh 17.72 in600.1 mb 0.00 in0.0 mm 0.00 in/hr0.0 mm/hr 0.00 in0.0 mm
04:09 AM 42.1°F5.6°C 20.7°F-6.3°C 42% 4.8 mph NNW7.7 kmh NNW 9.7 mph15.6 kmh 17.72 in600.1 mb 0.00 in0.0 mm 0.00 in/hr0.0 mm/hr 0.00 in0.0 mm
04:08 AM 42.1°F5.6°C 20.7°F-6.3°C 42% 7.5 mph W12.1 kmh W 9.7 mph15.6 kmh 17.72 in600.1 mb 0.00 in0.0 mm 0.00 in/hr0.0 mm/hr 0.00 in0.0 mm
04:06 AM 42.1°F5.6°C 20.7°F-6.3°C 42% 4.8 mph WNW7.7 kmh WNW 9.1 mph14.6 kmh 17.72 in600.1 mb 0.00 in0.0 mm 0.00 in/hr0.0 mm/hr 0.00 in0.0 mm
04:05 AM 42.1°F5.6°C 20.7°F-6.3°C 42% 7.5 mph 12.1 kmh 9.1 mph14.6 kmh 17.72 in600.1 mb 0.00 in0.0 mm 0.00 in/hr0.0 mm/hr 0.00 in0.0 mm
04:03 AM 42.1°F5.6°C 20.7°F-6.3°C 42% 2.7 mph NW4.3 kmh NW 7.5 mph12.1 kmh 17.72 in600.1 mb 0.00 in0.0 mm 0.00 in/hr0.0 mm/hr 0.00 in0.0 mm
04:02 AM 42.1°F5.6°C 20.7°F-6.3°C 42% 4.8 mph N7.7 kmh N 7.5 mph12.1 kmh 17.72 in600.1 mb 0.00 in0.0 mm 0.00 in/hr0.0 mm/hr 0.00 in0.0 mm
04:00 AM 42.1°F5.6°C 20.7°F-6.3°C 42% 3.2 mph NNW5.1 kmh NNW 5.9 mph9.5 kmh 17.72 in600.1 mb 0.00 in0.0 mm 0.00 in/hr0.0 mm/hr 0.00 in0.0 mm
03:58 AM 42.3°F5.7°C 20.8°F-6.2°C 42% Calm Calm 7.5 mph12.1 kmh 17.72 in600.1 mb 0.00 in0.0 mm 0.00 in/hr0.0 mm/hr 0.00 in0.0 mm
03:56 AM 42.3°F5.7°C 20.8°F-6.2°C 42% 4.3 mph NNW6.9 kmh NNW 7.5 mph12.1 kmh 17.72 in600.1 mb 0.00 in0.0 mm 0.00 in/hr0.0 mm/hr 0.00 in0.0 mm
03:55 AM 42.3°F5.7°C 20.8°F-6.2°C 42% 4.3 mph NNW6.9 kmh NNW 7.5 mph12.1 kmh 17.72 in600.1 mb 0.00 in0.0 mm 0.00 in/hr0.0 mm/hr 0.00 in0.0 mm
03:53 AM 42.3°F5.7°C 20.8°F-6.2°C 42% 7.5 mph NW12.1 kmh NW 7.5 mph12.1 kmh 17.72 in600.1 mb 0.00 in0.0 mm 0.00 in/hr0.0 mm/hr 0.00 in0.0 mm
03:51 AM 42.3°F5.7°C 20.8°F-6.2°C 42% 2.7 mph NNW4.3 kmh NNW 7.0 mph11.3 kmh 17.72 in600.1 mb 0.00 in0.0 mm 0.00 in/hr0.0 mm/hr 0.00 in0.0 mm
03:49 AM 42.3°F5.7°C 20.8°F-6.2°C 42% 2.7 mph WNW4.3 kmh WNW 7.0 mph11.3 kmh 17.72 in600.1 mb 0.00 in0.0 mm 0.00 in/hr0.0 mm/hr 0.00 in0.0 mm
03:48 AM 42.3°F5.7°C 20.8°F-6.2°C 42% 5.4 mph NW8.7 kmh NW 12.1 mph19.5 kmh 17.72 in600.1 mb 0.00 in0.0 mm 0.00 in/hr0.0 mm/hr 0.00 in0.0 mm
03:47 AM 42.3°F5.7°C 20.8°F-6.2°C 42% 4.3 mph NW6.9 kmh NW 12.1 mph19.5 kmh 17.72 in600.1 mb 0.00 in0.0 mm 0.00 in/hr0.0 mm/hr 0.00 in0.0 mm
03:45 AM 42.3°F5.7°C 20.8°F-6.2°C 42% 4.8 mph WNW7.7 kmh WNW 12.1 mph19.5 kmh 17.72 in600.1 mb 0.00 in0.0 mm 0.00 in/hr0.0 mm/hr 0.00 in0.0 mm
03:44 AM 42.3°F5.7°C 20.8°F-6.2°C 42% 4.3 mph NNW6.9 kmh NNW 12.1 mph19.5 kmh 17.72 in600.1 mb 0.00 in0.0 mm 0.00 in/hr0.0 mm/hr 0.00 in0.0 mm
03:42 AM 42.3°F5.7°C 20.8°F-6.2°C 42% 3.8 mph NW6.1 kmh NW 7.0 mph11.3 kmh 17.72 in600.1 mb 0.00 in0.0 mm 0.00 in/hr0.0 mm/hr 0.00 in0.0 mm
03:41 AM 42.3°F5.7°C 20.8°F-6.2°C 42% 3.2 mph NW5.1 kmh NW 7.0 mph11.3 kmh 17.72 in600.1 mb 0.00 in0.0 mm 0.00 in/hr0.0 mm/hr 0.00 in0.0 mm
03:40 AM 42.3°F5.7°C 20.8°F-6.2°C 42% 4.8 mph WNW7.7 kmh WNW 7.0 mph11.3 kmh 17.72 in600.1 mb 0.00 in0.0 mm 0.00 in/hr0.0 mm/hr 0.00 in0.0 mm
03:39 AM 42.3°F5.7°C 20.8°F-6.2°C 42% 3.8 mph NNW6.1 kmh NNW 7.0 mph11.3 kmh 17.72 in600.1 mb 0.00 in0.0 mm 0.00 in/hr0.0 mm/hr 0.00 in0.0 mm
03:37 AM 42.3°F5.7°C 20.8°F-6.2°C 42% 3.8 mph NW6.1 kmh NW 7.5 mph12.1 kmh 17.72 in600.1 mb 0.00 in0.0 mm 0.00 in/hr0.0 mm/hr 0.00 in0.0 mm
03:35 AM 42.3°F5.7°C 20.8°F-6.2°C 42% Calm Calm 7.5 mph12.1 kmh 17.72 in600.1 mb 0.00 in0.0 mm 0.00 in/hr0.0 mm/hr 0.00 in0.0 mm
03:34 AM 42.3°F5.7°C 20.8°F-6.2°C 42% 4.8 mph NNW7.7 kmh NNW 7.5 mph12.1 kmh 17.72 in600.1 mb 0.00 in0.0 mm 0.00 in/hr0.0 mm/hr 0.00 in0.0 mm
03:33 AM 42.3°F5.7°C 20.8°F-6.2°C 42% 3.2 mph NW5.1 kmh NW 7.5 mph12.1 kmh 17.72 in600.1 mb 0.00 in0.0 mm 0.00 in/hr0.0 mm/hr 0.00 in0.0 mm
03:31 AM 42.3°F5.7°C 20.8°F-6.2°C 42% 3.8 mph NNW6.1 kmh NNW 7.5 mph12.1 kmh 17.72 in600.1 mb 0.00 in0.0 mm 0.00 in/hr0.0 mm/hr 0.00 in0.0 mm
03:30 AM 42.1°F5.6°C 20.7°F-6.3°C 42% 3.8 mph NW6.1 kmh NW 7.5 mph12.1 kmh 17.72 in600.1 mb 0.00 in0.0 mm 0.00 in/hr0.0 mm/hr 0.00 in0.0 mm
03:28 AM 42.1°F5.6°C 20.7°F-6.3°C 42% 3.2 mph WNW5.1 kmh WNW 7.5 mph12.1 kmh 17.72 in600.1 mb 0.00 in0.0 mm 0.00 in/hr0.0 mm/hr 0.00 in0.0 mm
03:27 AM 42.1°F5.6°C 20.7°F-6.3°C 42% 4.8 mph NNW7.7 kmh NNW 7.0 mph11.3 kmh 17.72 in600.1 mb 0.00 in0.0 mm 0.00 in/hr0.0 mm/hr 0.00 in0.0 mm
03:26 AM 42.1°F5.6°C 20.7°F-6.3°C 42% 5.9 mph N9.5 kmh N 7.0 mph11.3 kmh 17.72 in600.1 mb 0.00 in0.0 mm 0.00 in/hr0.0 mm/hr 0.00 in0.0 mm
03:24 AM 42.1°F5.6°C 20.7°F-6.3°C 42% 4.3 mph NW6.9 kmh NW 7.5 mph12.1 kmh 17.72 in600.1 mb 0.00 in0.0 mm 0.00 in/hr0.0 mm/hr 0.00 in0.0 mm
03:23 AM 42.1°F5.6°C 20.7°F-6.3°C 42% 3.2 mph NW5.1 kmh NW 7.5 mph12.1 kmh 17.72 in600.1 mb 0.00 in0.0 mm 0.00 in/hr0.0 mm/hr 0.00 in0.0 mm
03:22 AM 42.1°F5.6°C 20.7°F-6.3°C 42% 3.2 mph WSW5.1 kmh WSW 7.5 mph12.1 kmh 17.72 in600.1 mb 0.00 in0.0 mm 0.00 in/hr0.0 mm/hr 0.00 in0.0 mm
03:20 AM 42.1°F5.6°C 20.7°F-6.3°C 42% 5.4 mph N8.7 kmh N 7.5 mph12.1 kmh 17.72 in600.1 mb 0.00 in0.0 mm 0.00 in/hr0.0 mm/hr 0.00 in0.0 mm
03:19 AM 42.1°F5.6°C 20.7°F-6.3°C 42% 3.2 mph W5.1 kmh W 5.9 mph9.5 kmh 17.72 in600.1 mb 0.00 in0.0 mm 0.00 in/hr0.0 mm/hr 0.00 in0.0 mm
03:18 AM 42.1°F5.6°C 20.7°F-6.3°C 42% 3.2 mph NNW5.1 kmh NNW 5.9 mph9.5 kmh 17.72 in600.1 mb 0.00 in0.0 mm 0.00 in/hr0.0 mm/hr 0.00 in0.0 mm
03:16 AM 42.1°F5.6°C 20.7°F-6.3°C 42% Calm Calm 5.9 mph9.5 kmh 17.72 in600.1 mb 0.00 in0.0 mm 0.00 in/hr0.0 mm/hr 0.00 in0.0 mm
03:15 AM 42.1°F5.6°C 20.7°F-6.3°C 42% Calm Calm 5.9 mph9.5 kmh 17.72 in600.1 mb 0.00 in0.0 mm 0.00 in/hr0.0 mm/hr 0.00 in0.0 mm
03:13 AM 42.1°F5.6°C 20.7°F-6.3°C 42% 5.9 mph N9.5 kmh N 5.9 mph9.5 kmh 17.72 in600.1 mb 0.00 in0.0 mm 0.00 in/hr0.0 mm/hr 0.00 in0.0 mm
03:12 AM 42.1°F5.6°C 20.7°F-6.3°C 42% 3.8 mph NW6.1 kmh NW 6.4 mph10.3 kmh 17.72 in600.1 mb 0.00 in0.0 mm 0.00 in/hr0.0 mm/hr 0.00 in0.0 mm
03:10 AM 42.1°F5.6°C 20.7°F-6.3°C 42% Calm Calm 6.4 mph10.3 kmh 17.72 in600.1 mb 0.00 in0.0 mm 0.00 in/hr0.0 mm/hr 0.00 in0.0 mm
03:09 AM 42.1°F5.6°C 20.7°F-6.3°C 42% 3.2 mph NNW5.1 kmh NNW 6.4 mph10.3 kmh 17.72 in600.1 mb 0.00 in0.0 mm 0.00 in/hr0.0 mm/hr 0.00 in0.0 mm
03:08 AM 42.1°F5.6°C 20.7°F-6.3°C 42% 3.2 mph N5.1 kmh N 6.4 mph10.3 kmh 17.72 in600.1 mb 0.00 in0.0 mm 0.00 in/hr0.0 mm/hr 0.00 in0.0 mm
03:07 AM 42.1°F5.6°C 20.7°F-6.3°C 42% 2.7 mph NNW4.3 kmh NNW 6.4 mph10.3 kmh 17.72 in600.1 mb 0.00 in0.0 mm 0.00 in/hr0.0 mm/hr 0.00 in0.0 mm
03:06 AM 42.1°F5.6°C 20.7°F-6.3°C 42% 6.4 mph NW10.3 kmh NW 6.4 mph10.3 kmh 17.72 in600.1 mb 0.00 in0.0 mm 0.00 in/hr0.0 mm/hr 0.00 in0.0 mm
03:05 AM 42.1°F5.6°C 20.7°F-6.3°C 42% Calm Calm 4.8 mph7.7 kmh 17.72 in600.1 mb 0.00 in0.0 mm 0.00 in/hr0.0 mm/hr 0.00 in0.0 mm
03:03 AM 42.1°F5.6°C 20.7°F-6.3°C 42% Calm Calm 7.0 mph11.3 kmh 17.72 in600.1 mb 0.00 in0.0 mm 0.00 in/hr0.0 mm/hr 0.00 in0.0 mm
03:02 AM 42.1°F5.6°C 20.7°F-6.3°C 42% Calm Calm 7.0 mph11.3 kmh 17.72 in600.1 mb 0.00 in0.0 mm 0.00 in/hr0.0 mm/hr 0.00 in0.0 mm
03:01 AM 42.1°F5.6°C 20.7°F-6.3°C 42% Calm Calm 7.0 mph11.3 kmh 17.72 in600.1 mb 0.00 in0.0 mm 0.00 in/hr0.0 mm/hr 0.00 in0.0 mm
02:59 AM 42.1°F5.6°C 20.7°F-6.3°C 42% 4.3 mph NNW6.9 kmh NNW 7.0 mph11.3 kmh 17.72 in600.1 mb 0.00 in0.0 mm 0.00 in/hr0.0 mm/hr 0.00 in0.0 mm
02:57 AM 42.1°F5.6°C 20.7°F-6.3°C 42% 4.3 mph NW6.9 kmh NW 7.0 mph11.3 kmh 17.72 in600.1 mb 0.00 in0.0 mm 0.00 in/hr0.0 mm/hr 0.00 in0.0 mm
02:56 AM 42.1°F5.6°C 20.7°F-6.3°C 42% 2.7 mph NNW4.3 kmh NNW 7.0 mph11.3 kmh 17.72 in600.1 mb 0.00 in0.0 mm 0.00 in/hr0.0 mm/hr 0.00 in0.0 mm
02:55 AM 42.1°F5.6°C 20.7°F-6.3°C 42% 2.7 mph NW4.3 kmh NW 7.0 mph11.3 kmh 17.72 in600.1 mb 0.00 in0.0 mm 0.00 in/hr0.0 mm/hr 0.00 in0.0 mm
02:54 AM 42.1°F5.6°C 20.7°F-6.3°C 42% 4.3 mph NNW6.9 kmh NNW 7.0 mph11.3 kmh 17.72 in600.1 mb 0.00 in0.0 mm 0.00 in/hr0.0 mm/hr 0.00 in0.0 mm
02:52 AM 42.1°F5.6°C 20.7°F-6.3°C 42% Calm Calm 4.8 mph7.7 kmh 17.72 in600.1 mb 0.00 in0.0 mm 0.00 in/hr0.0 mm/hr 0.00 in0.0 mm
02:50 AM 42.1°F5.6°C 20.7°F-6.3°C 42% Calm Calm 4.8 mph7.7 kmh 17.72 in600.1 mb 0.00 in0.0 mm 0.00 in/hr0.0 mm/hr 0.00 in0.0 mm
02:48 AM 42.1°F5.6°C 20.7°F-6.3°C 42% Calm Calm 4.8 mph7.7 kmh 17.72 in600.1 mb 0.00 in0.0 mm 0.00 in/hr0.0 mm/hr 0.00 in0.0 mm
02:46 AM 42.1°F5.6°C 20.7°F-6.3°C 42% Calm Calm 4.8 mph7.7 kmh 17.72 in600.1 mb 0.00 in0.0 mm 0.00 in/hr0.0 mm/hr 0.00 in0.0 mm
02:45 AM 42.1°F5.6°C 20.7°F-6.3°C 42% 4.3 mph NNW6.9 kmh NNW 4.8 mph7.7 kmh 17.72 in600.1 mb 0.00 in0.0 mm 0.00 in/hr0.0 mm/hr 0.00 in0.0 mm
02:44 AM 42.1°F5.6°C 20.7°F-6.3°C 42% Calm Calm 4.8 mph7.7 kmh 17.72 in600.1 mb 0.00 in0.0 mm 0.00 in/hr0.0 mm/hr 0.00 in0.0 mm
02:42 AM 42.1°F5.6°C 20.7°F-6.3°C 42% Calm Calm 4.8 mph7.7 kmh 17.72 in600.1 mb 0.00 in0.0 mm 0.00 in/hr0.0 mm/hr 0.00 in0.0 mm
02:41 AM 42.1°F5.6°C 20.7°F-6.3°C 42% 4.3 mph WNW6.9 kmh WNW 4.8 mph7.7 kmh 17.72 in600.1 mb 0.00 in0.0 mm 0.00 in/hr0.0 mm/hr 0.00 in0.0 mm
02:39 AM 42.3°F5.7°C 20.8°F-6.2°C 42% 4.3 mph NW6.9 kmh NW 4.8 mph7.7 kmh 17.72 in600.1 mb 0.00 in0.0 mm 0.00 in/hr0.0 mm/hr 0.00 in0.0 mm
02:38 AM 42.3°F5.7°C 20.8°F-6.2°C 42% Calm Calm 3.8 mph6.1 kmh 17.72 in600.1 mb 0.00 in0.0 mm 0.00 in/hr0.0 mm/hr 0.00 in0.0 mm
02:37 AM 42.4°F5.8°C 21.0°F-6.1°C 42% Calm Calm 3.8 mph6.1 kmh 17.72 in600.1 mb 0.00 in0.0 mm 0.00 in/hr0.0 mm/hr 0.00 in0.0 mm
02:36 AM 42.4°F5.8°C 21.0°F-6.1°C 42% Calm Calm 3.8 mph6.1 kmh 17.72 in600.1 mb 0.00 in0.0 mm 0.00 in/hr0.0 mm/hr 0.00 in0.0 mm
02:35 AM 42.4°F5.8°C 21.0°F-6.1°C 42% Calm Calm 3.8 mph6.1 kmh 17.72 in600.1 mb 0.00 in0.0 mm 0.00 in/hr0.0 mm/hr 0.00 in0.0 mm
02:34 AM 42.4°F5.8°C 21.0°F-6.1°C 42% Calm Calm 3.8 mph6.1 kmh 17.72 in600.1 mb 0.00 in0.0 mm 0.00 in/hr0.0 mm/hr 0.00 in0.0 mm
02:33 AM 42.4°F5.8°C 21.0°F-6.1°C 42% 3.8 mph WSW6.1 kmh WSW 5.9 mph9.5 kmh 17.72 in600.1 mb 0.00 in0.0 mm 0.00 in/hr0.0 mm/hr 0.00 in0.0 mm
02:32 AM 42.6°F5.9°C 21.2°F-6.0°C 42% Calm Calm 5.9 mph9.5 kmh 17.72 in600.1 mb 0.00 in0.0 mm 0.00 in/hr0.0 mm/hr 0.00 in0.0 mm
02:31 AM 42.6°F5.9°C 21.2°F-6.0°C 42% Calm Calm 5.9 mph9.5 kmh 17.72 in600.1 mb 0.00 in0.0 mm 0.00 in/hr0.0 mm/hr 0.00 in0.0 mm
02:29 AM 42.6°F5.9°C 21.2°F-6.0°C 42% Calm Calm 5.9 mph9.5 kmh 17.72 in600.1 mb 0.00 in0.0 mm 0.00 in/hr0.0 mm/hr 0.00 in0.0 mm
02:28 AM 42.8°F6.0°C 20.8°F-6.2°C 41% 2.7 mph NW4.3 kmh NW 5.9 mph9.5 kmh 17.72 in600.1 mb 0.00 in0.0 mm 0.00 in/hr0.0 mm/hr 0.00 in0.0 mm
02:27 AM 42.8°F6.0°C 20.8°F-6.2°C 41% 3.8 mph N6.1 kmh N 5.9 mph9.5 kmh 17.72 in600.1 mb 0.00 in0.0 mm 0.00 in/hr0.0 mm/hr 0.00 in0.0 mm
02:25 AM 42.8°F6.0°C 20.8°F-6.2°C 41% 2.7 mph NNW4.3 kmh NNW 5.9 mph9.5 kmh 17.72 in600.1 mb 0.00 in0.0 mm 0.00 in/hr0.0 mm/hr 0.00 in0.0 mm
02:24 AM 42.8°F6.0°C 20.8°F-6.2°C 41% 3.2 mph NNW5.1 kmh NNW 5.9 mph9.5 kmh 17.72 in600.1 mb 0.00 in0.0 mm 0.00 in/hr0.0 mm/hr 0.00 in0.0 mm
02:23 AM 42.8°F6.0°C 20.8°F-6.2°C 41% 3.8 mph NW6.1 kmh NW 5.4 mph8.7 kmh 17.72 in600.1 mb 0.00 in0.0 mm 0.00 in/hr0.0 mm/hr 0.00 in0.0 mm
02:21 AM 42.8°F6.0°C 20.8°F-6.2°C 41% 4.3 mph NNW6.9 kmh NNW 7.0 mph11.3 kmh 17.72 in600.1 mb 0.00 in0.0 mm 0.00 in/hr0.0 mm/hr 0.00 in0.0 mm
02:20 AM 42.8°F6.0°C 20.8°F-6.2°C 41% 3.8 mph NNW6.1 kmh NNW 7.5 mph12.1 kmh 17.72 in600.1 mb 0.00 in0.0 mm 0.00 in/hr0.0 mm/hr 0.00 in0.0 mm
02:18 AM 43.0°F6.1°C 20.9°F-6.2°C 41% 4.8 mph WNW7.7 kmh WNW 7.5 mph12.1 kmh 17.72 in600.1 mb 0.00 in0.0 mm 0.00 in/hr0.0 mm/hr 0.00 in0.0 mm
02:17 AM 43.0°F6.1°C 20.9°F-6.2°C 41% 2.7 mph NW4.3 kmh NW 7.5 mph12.1 kmh 17.72 in600.1 mb 0.00 in0.0 mm 0.00 in/hr0.0 mm/hr 0.00 in0.0 mm
02:16 AM 43.0°F6.1°C 20.9°F-6.2°C 41% Calm Calm 7.5 mph12.1 kmh 17.72 in600.1 mb 0.00 in0.0 mm 0.00 in/hr0.0 mm/hr 0.00 in0.0 mm
02:14 AM 43.0°F6.1°C 20.9°F-6.2°C 41% 3.2 mph NW5.1 kmh NW 7.0 mph11.3 kmh 17.72 in600.1 mb 0.00 in0.0 mm 0.00 in/hr0.0 mm/hr 0.00 in0.0 mm
02:13 AM 43.0°F6.1°C 20.9°F-6.2°C 41% 3.2 mph NNW5.1 kmh NNW 7.0 mph11.3 kmh 17.72 in600.1 mb 0.00 in0.0 mm 0.00 in/hr0.0 mm/hr 0.00 in0.0 mm
02:12 AM 43.0°F6.1°C 20.9°F-6.2°C 41% 3.8 mph NW6.1 kmh NW 7.0 mph11.3 kmh 17.72 in600.1 mb 0.00 in0.0 mm 0.00 in/hr0.0 mm/hr 0.00 in0.0 mm
02:10 AM 43.0°F6.1°C 20.9°F-6.2°C 41% 7.0 mph NNW11.3 kmh NNW 7.0 mph11.3 kmh 17.72 in600.1 mb 0.00 in0.0 mm 0.00 in/hr0.0 mm/hr 0.00 in0.0 mm
02:08 AM 43.2°F6.2°C 21.1°F-6.1°C 41% 7.0 mph NW11.3 kmh NW 7.0 mph11.3 kmh 17.72 in600.1 mb 0.00 in0.0 mm 0.00 in/hr0.0 mm/hr 0.00 in0.0 mm
02:07 AM 43.2°F6.2°C 21.1°F-6.1°C 41% 3.2 mph NW5.1 kmh NW 6.4 mph10.3 kmh 17.72 in600.1 mb 0.00 in0.0 mm 0.00 in/hr0.0 mm/hr 0.00 in0.0 mm
02:06 AM 43.3°F6.3°C 21.2°F-6.0°C 41% 3.2 mph NW5.1 kmh NW 7.5 mph12.1 kmh 17.72 in600.1 mb 0.00 in0.0 mm 0.00 in/hr0.0 mm/hr 0.00 in0.0 mm
02:04 AM 43.3°F6.3°C 21.2°F-6.0°C 41% 3.2 mph NW5.1 kmh NW 7.5 mph12.1 kmh 17.72 in600.1 mb 0.00 in0.0 mm 0.00 in/hr0.0 mm/hr 0.00 in0.0 mm
02:03 AM 43.3°F6.3°C 21.2°F-6.0°C 41% 4.3 mph N6.9 kmh N 7.5 mph12.1 kmh 17.72 in600.1 mb 0.00 in0.0 mm 0.00 in/hr0.0 mm/hr 0.00 in0.0 mm
02:01 AM 43.5°F6.4°C 21.4°F-5.9°C 41% 3.8 mph NW6.1 kmh NW 7.5 mph12.1 kmh 17.72 in600.1 mb 0.00 in0.0 mm 0.00 in/hr0.0 mm/hr 0.00 in0.0 mm
02:00 AM 43.5°F6.4°C 21.4°F-5.9°C 41% 5.9 mph WNW9.5 kmh WNW 9.1 mph14.6 kmh 17.72 in600.1 mb 0.00 in0.0 mm 0.00 in/hr0.0 mm/hr 0.00 in0.0 mm
01:59 AM 43.5°F6.4°C 21.4°F-5.9°C 41% 4.3 mph NW6.9 kmh NW 9.1 mph14.6 kmh 17.72 in600.1 mb 0.00 in0.0 mm 0.00 in/hr0.0 mm/hr 0.00 in0.0 mm
01:57 AM 43.5°F6.4°C 21.4°F-5.9°C 41% 4.3 mph NNW6.9 kmh NNW 9.1 mph14.6 kmh 17.72 in600.1 mb 0.00 in0.0 mm 0.00 in/hr0.0 mm/hr 0.00 in0.0 mm
01:56 AM 43.5°F6.4°C 21.4°F-5.9°C 41% 3.2 mph WNW5.1 kmh WNW 9.1 mph14.6 kmh 17.72 in600.1 mb 0.00 in0.0 mm 0.00 in/hr0.0 mm/hr 0.00 in0.0 mm
01:55 AM 43.3°F6.3°C 21.2°F-6.0°C 41% 4.8 mph NW7.7 kmh NW 9.1 mph14.6 kmh 17.72 in600.1 mb 0.00 in0.0 mm 0.00 in/hr0.0 mm/hr 0.00 in0.0 mm
01:53 AM 43.3°F6.3°C 21.2°F-6.0°C 41% 6.4 mph NNW10.3 kmh NNW 9.1 mph14.6 kmh 17.72 in600.1 mb 0.00 in0.0 mm 0.00 in/hr0.0 mm/hr 0.00 in0.0 mm
01:52 AM 43.3°F6.3°C 21.2°F-6.0°C 41% 3.2 mph NW5.1 kmh NW 9.1 mph14.6 kmh 17.72 in600.1 mb 0.00 in0.0 mm 0.00 in/hr0.0 mm/hr 0.00 in0.0 mm
01:50 AM 43.3°F6.3°C 21.2°F-6.0°C 41% 3.8 mph NW6.1 kmh NW 9.1 mph14.6 kmh 17.72 in600.1 mb 0.00 in0.0 mm 0.00 in/hr0.0 mm/hr 0.00 in0.0 mm
01:49 AM 43.3°F6.3°C 21.2°F-6.0°C 41% 4.3 mph W6.9 kmh W 9.1 mph14.6 kmh 17.72 in600.1 mb 0.00 in0.0 mm 0.00 in/hr0.0 mm/hr 0.00 in0.0 mm
01:48 AM 43.3°F6.3°C 21.2°F-6.0°C 41% 4.8 mph NW7.7 kmh NW 4.8 mph7.7 kmh 17.72 in600.1 mb 0.00 in0.0 mm 0.00 in/hr0.0 mm/hr 0.00 in0.0 mm
01:47 AM 43.5°F6.4°C 21.4°F-5.9°C 41% 3.2 mph NW5.1 kmh NW 4.8 mph7.7 kmh 17.72 in600.1 mb 0.00 in0.0 mm 0.00 in/hr0.0 mm/hr 0.00 in0.0 mm
01:45 AM 43.5°F6.4°C 21.4°F-5.9°C 41% 4.3 mph NW6.9 kmh NW 4.8 mph7.7 kmh 17.72 in600.1 mb 0.00 in0.0 mm 0.00 in/hr0.0 mm/hr 0.00 in0.0 mm
01:43 AM 43.5°F6.4°C 21.4°F-5.9°C 41% 3.8 mph NW6.1 kmh NW 7.5 mph12.1 kmh 17.72 in600.1 mb 0.00 in0.0 mm 0.00 in/hr0.0 mm/hr 0.00 in0.0 mm
01:42 AM 43.5°F6.4°C 21.4°F-5.9°C 41% 4.3 mph W6.9 kmh W 7.5 mph12.1 kmh 17.72 in600.1 mb 0.00 in0.0 mm 0.00 in/hr0.0 mm/hr 0.00 in0.0 mm
01:40 AM 43.5°F6.4°C 21.4°F-5.9°C 41% 3.8 mph NW6.1 kmh NW 7.5 mph12.1 kmh 17.72 in600.1 mb 0.00 in0.0 mm 0.00 in/hr0.0 mm/hr 0.00 in0.0 mm
01:38 AM 43.5°F6.4°C 21.4°F-5.9°C 41% 4.8 mph W7.7 kmh W 7.5 mph12.1 kmh 17.72 in600.1 mb 0.00 in0.0 mm 0.00 in/hr0.0 mm/hr 0.00 in0.0 mm
01:36 AM 43.5°F6.4°C 21.4°F-5.9°C 41% 7.0 mph NW11.3 kmh NW 7.5 mph12.1 kmh 17.72 in600.1 mb 0.00 in0.0 mm 0.00 in/hr0.0 mm/hr 0.00 in0.0 mm
01:35 AM 43.5°F6.4°C 21.4°F-5.9°C 41% 4.3 mph NNW6.9 kmh NNW 7.5 mph12.1 kmh 17.72 in600.1 mb 0.00 in0.0 mm 0.00 in/hr0.0 mm/hr 0.00 in0.0 mm
01:34 AM 43.5°F6.4°C 21.4°F-5.9°C 41% 4.8 mph NNW7.7 kmh NNW 8.1 mph13.0 kmh 17.72 in600.1 mb 0.00 in0.0 mm 0.00 in/hr0.0 mm/hr 0.00 in0.0 mm
01:32 AM 43.5°F6.4°C 21.4°F-5.9°C 41% 5.9 mph NW9.5 kmh NW 8.1 mph13.0 kmh 17.72 in600.1 mb 0.00 in0.0 mm 0.00 in/hr0.0 mm/hr 0.00 in0.0 mm
01:31 AM 43.5°F6.4°C 21.4°F-5.9°C 41% 4.8 mph NW7.7 kmh NW 8.1 mph13.0 kmh 17.72 in600.1 mb 0.00 in0.0 mm 0.00 in/hr0.0 mm/hr 0.00 in0.0 mm
01:29 AM 43.5°F6.4°C 21.4°F-5.9°C 41% 4.8 mph NW7.7 kmh NW 8.1 mph13.0 kmh 17.72 in600.1 mb 0.00 in0.0 mm 0.00 in/hr0.0 mm/hr 0.00 in0.0 mm
01:28 AM 43.5°F6.4°C 21.4°F-5.9°C 41% 4.8 mph N7.7 kmh N 7.5 mph12.1 kmh 17.72 in600.1 mb 0.00 in0.0 mm 0.00 in/hr0.0 mm/hr 0.00 in0.0 mm
01:27 AM 43.5°F6.4°C 21.4°F-5.9°C 41% 7.5 mph NW12.1 kmh NW 7.5 mph12.1 kmh 17.72 in600.1 mb 0.00 in0.0 mm 0.00 in/hr0.0 mm/hr 0.00 in0.0 mm
01:25 AM 43.7°F6.5°C 21.6°F-5.8°C 41% Calm Calm 7.5 mph12.1 kmh 17.72 in600.1 mb 0.00 in0.0 mm 0.00 in/hr0.0 mm/hr 0.00 in0.0 mm
01:24 AM 43.7°F6.5°C 21.6°F-5.8°C 41% 3.8 mph NW6.1 kmh NW 7.5 mph12.1 kmh 17.72 in600.1 mb 0.00 in0.0 mm 0.00 in/hr0.0 mm/hr 0.00 in0.0 mm
01:23 AM 43.7°F6.5°C 21.6°F-5.8°C 41% 3.2 mph NW5.1 kmh NW 7.5 mph12.1 kmh 17.72 in600.1 mb 0.00 in0.0 mm 0.00 in/hr0.0 mm/hr 0.00 in0.0 mm
01:21 AM 43.7°F6.5°C 21.6°F-5.8°C 41% 4.8 mph WNW7.7 kmh WNW 7.0 mph11.3 kmh 17.72 in600.1 mb 0.00 in0.0 mm 0.00 in/hr0.0 mm/hr 0.00 in0.0 mm
01:20 AM 43.7°F6.5°C 21.6°F-5.8°C 41% 3.2 mph NW5.1 kmh NW 7.5 mph12.1 kmh 17.72 in600.1 mb 0.00 in0.0 mm 0.00 in/hr0.0 mm/hr 0.00 in0.0 mm
01:19 AM 43.7°F6.5°C 21.6°F-5.8°C 41% 5.9 mph NW9.5 kmh NW 7.5 mph12.1 kmh 17.72 in600.1 mb 0.00 in0.0 mm 0.00 in/hr0.0 mm/hr 0.00 in0.0 mm
01:17 AM 43.9°F6.6°C 21.7°F-5.7°C 41% 4.8 mph NW7.7 kmh NW 7.5 mph12.1 kmh 17.72 in600.1 mb 0.00 in0.0 mm 0.00 in/hr0.0 mm/hr 0.00 in0.0 mm
01:16 AM 43.9°F6.6°C 21.7°F-5.7°C 41% Calm Calm 7.5 mph12.1 kmh 17.72 in600.1 mb 0.00 in0.0 mm 0.00 in/hr0.0 mm/hr 0.00 in0.0 mm
01:14 AM 43.9°F6.6°C 21.7°F-5.7°C 41% 7.0 mph NW11.3 kmh NW 9.7 mph15.6 kmh 17.72 in600.1 mb 0.00 in0.0 mm 0.00 in/hr0.0 mm/hr 0.00 in0.0 mm
01:12 AM 43.9°F6.6°C 21.7°F-5.7°C 41% 3.8 mph NNE6.1 kmh NNE 9.7 mph15.6 kmh 17.72 in600.1 mb 0.00 in0.0 mm 0.00 in/hr0.0 mm/hr 0.00 in0.0 mm
01:11 AM 43.9°F6.6°C 21.7°F-5.7°C 41% 3.8 mph WNW6.1 kmh WNW 10.5 mph16.9 kmh 17.72 in600.1 mb 0.00 in0.0 mm 0.00 in/hr0.0 mm/hr 0.00 in0.0 mm
01:10 AM 43.9°F6.6°C 21.7°F-5.7°C 41% 4.8 mph WNW7.7 kmh WNW 10.5 mph16.9 kmh 17.72 in600.1 mb 0.00 in0.0 mm 0.00 in/hr0.0 mm/hr 0.00 in0.0 mm
01:09 AM 43.9°F6.6°C 21.7°F-5.7°C 41% 7.5 mph NNW12.1 kmh NNW 10.5 mph16.9 kmh 17.72 in600.1 mb 0.00 in0.0 mm 0.00 in/hr0.0 mm/hr 0.00 in0.0 mm
01:07 AM 43.9°F6.6°C 21.7°F-5.7°C 41% 4.3 mph NW6.9 kmh NW 10.5 mph16.9 kmh 17.72 in600.1 mb 0.00 in0.0 mm 0.00 in/hr0.0 mm/hr 0.00 in0.0 mm
01:05 AM 43.9°F6.6°C 21.7°F-5.7°C 41% 6.4 mph NNW10.3 kmh NNW 9.1 mph14.6 kmh 17.72 in600.1 mb 0.00 in0.0 mm 0.00 in/hr0.0 mm/hr 0.00 in0.0 mm
01:03 AM 43.9°F6.6°C 21.7°F-5.7°C 41% 3.2 mph NNW5.1 kmh NNW 9.1 mph14.6 kmh 17.72 in600.1 mb 0.00 in0.0 mm 0.00 in/hr0.0 mm/hr 0.00 in0.0 mm
01:02 AM 43.9°F6.6°C 21.7°F-5.7°C 41% 3.2 mph NNW5.1 kmh NNW 9.1 mph14.6 kmh 17.72 in600.1 mb 0.00 in0.0 mm 0.00 in/hr0.0 mm/hr 0.00 in0.0 mm
01:00 AM 43.9°F6.6°C 21.7°F-5.7°C 41% 9.1 mph NW14.6 kmh NW 10.5 mph16.9 kmh 17.72 in600.1 mb 0.00 in0.0 mm 0.00 in/hr0.0 mm/hr 0.00 in0.0 mm
12:58 AM 43.9°F6.6°C 21.7°F-5.7°C 41% 4.3 mph N6.9 kmh N 10.5 mph16.9 kmh 17.72 in600.1 mb 0.00 in0.0 mm 0.00 in/hr0.0 mm/hr 0.00 in0.0 mm
12:56 AM 43.9°F6.6°C 21.7°F-5.7°C 41% 8.1 mph NNW13.0 kmh NNW 10.5 mph16.9 kmh 17.72 in600.1 mb 0.00 in0.0 mm 0.00 in/hr0.0 mm/hr 0.00 in0.0 mm
12:55 AM 43.9°F6.6°C 21.7°F-5.7°C 41% 6.4 mph N10.3 kmh N 10.5 mph16.9 kmh 17.72 in600.1 mb 0.00 in0.0 mm 0.00 in/hr0.0 mm/hr 0.00 in0.0 mm
12:53 AM 43.7°F6.5°C 21.6°F-5.8°C 41% 4.8 mph WNW7.7 kmh WNW 7.0 mph11.3 kmh 17.72 in600.1 mb 0.00 in0.0 mm 0.00 in/hr0.0 mm/hr 0.00 in0.0 mm
12:51 AM 43.7°F6.5°C 21.6°F-5.8°C 41% 4.8 mph NW7.7 kmh NW 7.0 mph11.3 kmh 17.72 in600.1 mb 0.00 in0.0 mm 0.00 in/hr0.0 mm/hr 0.00 in0.0 mm
12:50 AM 43.7°F6.5°C 21.6°F-5.8°C 41% 7.0 mph N11.3 kmh N 7.0 mph11.3 kmh 17.72 in600.1 mb 0.00 in0.0 mm 0.00 in/hr0.0 mm/hr 0.00 in0.0 mm
12:49 AM 43.7°F6.5°C 21.6°F-5.8°C 41% 4.3 mph NNE6.9 kmh NNE 8.6 mph13.8 kmh 17.72 in600.1 mb 0.00 in0.0 mm 0.00 in/hr0.0 mm/hr 0.00 in0.0 mm
12:47 AM 43.7°F6.5°C 21.6°F-5.8°C 41% 4.3 mph NNW6.9 kmh NNW 8.6 mph13.8 kmh 17.72 in600.1 mb 0.00 in0.0 mm 0.00 in/hr0.0 mm/hr 0.00 in0.0 mm
12:46 AM 43.7°F6.5°C 21.6°F-5.8°C 41% 4.8 mph NW7.7 kmh NW 8.6 mph13.8 kmh 17.72 in600.1 mb 0.00 in0.0 mm 0.00 in/hr0.0 mm/hr 0.00 in0.0 mm
12:45 AM 43.7°F6.5°C 21.6°F-5.8°C 41% 6.4 mph W10.3 kmh W 8.6 mph13.8 kmh 17.72 in600.1 mb 0.00 in0.0 mm 0.00 in/hr0.0 mm/hr 0.00 in0.0 mm
12:43 AM 43.7°F6.5°C 21.6°F-5.8°C 41% 3.8 mph NW6.1 kmh NW 8.1 mph13.0 kmh 17.72 in600.1 mb 0.00 in0.0 mm 0.00 in/hr0.0 mm/hr 0.00 in0.0 mm
12:42 AM 43.7°F6.5°C 21.6°F-5.8°C 41% 3.2 mph NW5.1 kmh NW 8.1 mph13.0 kmh 17.72 in600.1 mb 0.00 in0.0 mm 0.00 in/hr0.0 mm/hr 0.00 in0.0 mm
12:40 AM 43.7°F6.5°C 21.6°F-5.8°C 41% 4.3 mph SW6.9 kmh SW 8.1 mph13.0 kmh 17.72 in600.1 mb 0.00 in0.0 mm 0.00 in/hr0.0 mm/hr 0.00 in0.0 mm
12:39 AM 43.7°F6.5°C 21.6°F-5.8°C 41% 4.3 mph NW6.9 kmh NW 8.1 mph13.0 kmh 17.72 in600.1 mb 0.00 in0.0 mm 0.00 in/hr0.0 mm/hr 0.00 in0.0 mm
12:37 AM 43.7°F6.5°C 21.6°F-5.8°C 41% 6.4 mph NW10.3 kmh NW 7.5 mph12.1 kmh 17.72 in600.1 mb 0.00 in0.0 mm 0.00 in/hr0.0 mm/hr 0.00 in0.0 mm
12:36 AM 43.9°F6.6°C 21.7°F-5.7°C 41% 4.8 mph NNW7.7 kmh NNW 8.6 mph13.8 kmh 17.72 in600.1 mb 0.00 in0.0 mm 0.00 in/hr0.0 mm/hr 0.00 in0.0 mm
12:35 AM 43.9°F6.6°C 21.7°F-5.7°C 41% 7.5 mph NW12.1 kmh NW 9.9 mph15.9 kmh 17.72 in600.1 mb 0.00 in0.0 mm 0.00 in/hr0.0 mm/hr 0.00 in0.0 mm
12:34 AM 43.9°F6.6°C 21.7°F-5.7°C 41% 6.4 mph NW10.3 kmh NW 9.9 mph15.9 kmh 17.72 in600.1 mb 0.00 in0.0 mm 0.00 in/hr0.0 mm/hr 0.00 in0.0 mm
12:32 AM 43.9°F6.6°C 21.7°F-5.7°C 41% 4.8 mph NW7.7 kmh NW 9.9 mph15.9 kmh 17.72 in600.1 mb 0.00 in0.0 mm 0.00 in/hr0.0 mm/hr 0.00 in0.0 mm
12:31 AM 43.9°F6.6°C 21.7°F-5.7°C 41% 8.6 mph N13.8 kmh N 9.9 mph15.9 kmh 17.72 in600.1 mb 0.00 in0.0 mm 0.00 in/hr0.0 mm/hr 0.00 in0.0 mm
12:29 AM 43.9°F6.6°C 21.7°F-5.7°C 41% 7.0 mph WSW11.3 kmh WSW 9.7 mph15.6 kmh 17.72 in600.1 mb 0.00 in0.0 mm 0.00 in/hr0.0 mm/hr 0.00 in0.0 mm
12:28 AM 43.9°F6.6°C 21.7°F-5.7°C 41% 4.3 mph NW6.9 kmh NW 9.9 mph15.9 kmh 17.72 in600.1 mb 0.00 in0.0 mm 0.00 in/hr0.0 mm/hr 0.00 in0.0 mm
12:26 AM 43.9°F6.6°C 21.7°F-5.7°C 41% 4.8 mph NW7.7 kmh NW 9.9 mph15.9 kmh 17.72 in600.1 mb 0.00 in0.0 mm 0.00 in/hr0.0 mm/hr 0.00 in0.0 mm
12:25 AM 43.9°F6.6°C 21.7°F-5.7°C 41% 4.8 mph NW7.7 kmh NW 9.9 mph15.9 kmh 17.72 in600.1 mb 0.00 in0.0 mm 0.00 in/hr0.0 mm/hr 0.00 in0.0 mm
12:24 AM 43.9°F6.6°C 21.7°F-5.7°C 41% 6.4 mph N10.3 kmh N 9.9 mph15.9 kmh 17.72 in600.1 mb 0.00 in0.0 mm 0.00 in/hr0.0 mm/hr 0.00 in0.0 mm
12:22 AM 43.9°F6.6°C 21.7°F-5.7°C 41% 9.7 mph NW15.6 kmh NW 9.9 mph15.9 kmh 17.72 in600.1 mb 0.00 in0.0 mm 0.00 in/hr0.0 mm/hr 0.00 in0.0 mm
12:21 AM 44.1°F6.7°C 21.9°F-5.6°C 41% 5.9 mph NW9.5 kmh NW 9.9 mph15.9 kmh 17.72 in600.1 mb 0.00 in0.0 mm 0.00 in/hr0.0 mm/hr 0.00 in0.0 mm
12:19 AM 44.1°F6.7°C 21.9°F-5.6°C 41% 4.3 mph NW6.9 kmh NW 9.9 mph15.9 kmh 17.72 in600.1 mb 0.00 in0.0 mm 0.00 in/hr0.0 mm/hr 0.00 in0.0 mm
12:18 AM 44.1°F6.7°C 21.9°F-5.6°C 41% 5.9 mph NW9.5 kmh NW 9.9 mph15.9 kmh 17.72 in600.1 mb 0.00 in0.0 mm 0.00 in/hr0.0 mm/hr 0.00 in0.0 mm
12:17 AM 44.1°F6.7°C 21.9°F-5.6°C 41% 3.8 mph N6.1 kmh N 9.9 mph15.9 kmh 17.72 in600.1 mb 0.00 in0.0 mm 0.00 in/hr0.0 mm/hr 0.00 in0.0 mm
12:15 AM 44.1°F6.7°C 21.9°F-5.6°C 41% 7.0 mph NW11.3 kmh NW 9.9 mph15.9 kmh 17.72 in600.1 mb 0.00 in0.0 mm 0.00 in/hr0.0 mm/hr 0.00 in0.0 mm
12:14 AM 44.1°F6.7°C 21.9°F-5.6°C 41% 4.8 mph NW7.7 kmh NW 9.9 mph15.9 kmh 17.72 in600.1 mb 0.00 in0.0 mm 0.00 in/hr0.0 mm/hr 0.00 in0.0 mm
12:13 AM 44.1°F6.7°C 21.9°F-5.6°C 41% 4.3 mph NW6.9 kmh NW 9.9 mph15.9 kmh 17.72 in600.1 mb 0.00 in0.0 mm 0.00 in/hr0.0 mm/hr 0.00 in0.0 mm
12:12 AM 44.1°F6.7°C 21.9°F-5.6°C 41% 4.3 mph NW6.9 kmh NW 11.0 mph17.7 kmh 17.72 in600.1 mb 0.00 in0.0 mm 0.00 in/hr0.0 mm/hr 0.00 in0.0 mm
12:11 AM 44.1°F6.7°C 21.9°F-5.6°C 41% 4.3 mph NW6.9 kmh NW 11.0 mph17.7 kmh 17.72 in600.1 mb 0.00 in0.0 mm 0.00 in/hr0.0 mm/hr 0.00 in0.0 mm
12:10 AM 44.1°F6.7°C 21.9°F-5.6°C 41% 4.8 mph NW7.7 kmh NW 11.0 mph17.7 kmh 17.72 in600.1 mb 0.00 in0.0 mm 0.00 in/hr0.0 mm/hr 0.00 in0.0 mm
12:08 AM 44.1°F6.7°C 21.9°F-5.6°C 41% 4.8 mph N7.7 kmh N 11.0 mph17.7 kmh 17.72 in600.1 mb 0.00 in0.0 mm 0.00 in/hr0.0 mm/hr 0.00 in0.0 mm
12:07 AM 44.1°F6.7°C 21.9°F-5.6°C 41% 7.5 mph NW12.1 kmh NW 12.1 mph19.5 kmh 17.72 in600.1 mb 0.00 in0.0 mm 0.00 in/hr0.0 mm/hr 0.00 in0.0 mm
12:05 AM 44.1°F6.7°C 21.9°F-5.6°C 41% 9.7 mph NNW15.6 kmh NNW 12.1 mph19.5 kmh 17.72 in600.1 mb 0.00 in0.0 mm 0.00 in/hr0.0 mm/hr 0.00 in0.0 mm
12:04 AM 44.1°F6.7°C 21.9°F-5.6°C 41% 6.4 mph NNW10.3 kmh NNW 12.1 mph19.5 kmh 17.72 in600.1 mb 0.00 in0.0 mm 0.00 in/hr0.0 mm/hr 0.00 in0.0 mm
12:02 AM 44.2°F6.8°C 22.1°F-5.5°C 41% 4.3 mph NW6.9 kmh NW 12.1 mph19.5 kmh 17.72 in600.1 mb 0.00 in0.0 mm 0.00 in/hr0.0 mm/hr 0.00 in0.0 mm
12:01 AM 44.2°F6.8°C 22.1°F-5.5°C 41% 9.7 mph NNW15.6 kmh NNW 12.1 mph19.5 kmh 17.72 in600.1 mb 0.00 in0.0 mm 0.00 in/hr0.0 mm/hr 0.00 in0.0 mm
12:00 AM 44.2°F6.8°C 22.1°F-5.5°C 41% 6.4 mph NNW10.3 kmh NNW 8.6 mph13.8 kmh 17.72 in600.1 mb 0.00 in0.0 mm 0.00 in/hr0.0 mm/hr 0.00 in0.0 mm